Latest Coastal Weather Observations for Hindmarsh Island

IDS60701

Issued at 5:51 pm CST Tuesday 26 July 2016 (issued every 10 minutes, with the page automatically refreshed every 10 minutes)

About coastal observations | Map of coastal stations | Coastal observations for SA | Marine services | Other Formats
Station Details ID: 023894 Name: HINDMARSH ISLAND AWS Lat: -35.52 Lon: 138.82 Height: 11.0 m
Data from the previous 72 hours. | See also: Recent months at Hindmarsh Island
Date/Time
CST
Temp
°C
Wind Pressure Rain since
9am
mm
Weather Cloud Vis
km
Sea
Height
m
Swell
Dir  Spd
kts
Gust
kts
hPa Trend Height
m
Period
s
Dir
26/05:30pm 9.0 W 21 32 1005.5 - 6.8 - - - - - - -
26/05:26pm 11.3 W 22 32 1005.8 - 4.0 - - - - - - -
26/05:24pm 10.5 W 22 34 1006.0 - 5.6 - - - - - - -
26/05:21pm 11.3 WNW 21 34 1005.5 - 3.6 - - - - - - -
26/05:10pm 10.7 NNW 17 27 1004.2 - 2.4 - - - - - - -
26/05:07pm 10.7 NNW 17 27 1004.2 - 2.4 - - - - - - -
26/05:00pm 10.6 NNW 16 23 1004.4 - 2.0 - - - - - - -
26/04:43pm 10.8 NW 21 31 1005.0 - 1.0 - - - - - - -
26/04:30pm 11.2 NNW 20 28 1004.9 - 0.0 - - - - - - -
26/04:00pm 11.3 NNW 20 31 1005.8 - 0.0 - - - - - - -
26/03:30pm 11.6 NW 21 33 1007.0 - 0.0 - - - - - - -
26/03:05pm 12.0 NW 19 30 1007.6 - 0.0 - - - - - - -
26/03:02pm 12.0 NW 19 30 1007.6 - 0.0 - - - - - - -
26/03:00pm 11.9 NW 20 27 1007.8 - 0.0 - - - - - - -
26/02:30pm 11.7 NW 19 31 1007.9 - 0.0 - - - - - - -
26/02:09pm 12.1 NW 17 27 1008.8 - 0.0 - - - - - - -
26/02:00pm 11.8 NW 19 27 1009.0 - 0.0 - - - - - - -
26/01:40pm 11.6 NNW 18 28 1009.4 - 0.0 - - - - - - -
26/01:30pm 11.7 NW 20 27 1009.9 - 0.0 - - - - - - -
26/01:00pm 12.7 NNW 19 30 1010.0 - 0.0 - - - - - - -
26/12:30pm 12.3 NW 22 33 1010.9 - 0.0 - - - - - - -
26/12:00pm 12.3 NW 18 30 1011.9 - 0.0 - - - - - - -
26/11:32am 12.2 NW 16 27 1012.3 - 0.0 - - - - - - -
26/11:30am 12.2 NW 16 27 1012.3 - 0.0 - - - - - - -
26/11:29am 12.2 NW 16 27 1012.3 - 0.0 - - - - - - -
26/11:00am 11.6 NW 19 25 1012.9 - 0.0 - - - - - - -
26/10:55am 11.5 NW 15 25 1013.0 - 0.0 - - - - - - -
26/10:52am 11.5 NW 15 25 1013.0 - 0.0 - - - - - - -
26/10:30am 11.5 NW 16 24 1013.1 - 0.0 - - - - - - -
26/10:00am 11.8 WNW 11 18 1013.5 - 0.0 - - - - - - -
26/09:30am 10.6 NW 10 13 1013.9 - 0.0 - - - - - - -
26/09:00am 9.0 N 5 9 1014.2 - 3.0 - - - - - - -
26/08:30am 8.6 NNW 6 8 1014.0 - 3.0 - - - - - - -
26/08:00am 8.6 NW 9 13 1014.5 - 2.6 - - - - - - -
26/07:30am 8.2 NNW 9 11 1014.4 - 2.2 - - - - - - -
26/07:00am 9.1 NW 10 14 1014.5 - 2.2 - - - - - - -
26/06:30am 9.1 NW 11 15 1014.4 - 2.2 - - - - - - -
26/06:00am 9.0 NW 9 12 1014.3 - 2.2 - - - - - - -
26/05:30am 8.7 WNW 8 11 1014.2 - 2.2 - - - - - - -
26/05:00am 8.8 WNW 10 13 1014.2 - 2.2 - - - - - - -
26/04:30am 9.0 WNW 11 15 1014.2 - 2.2 - - - - - - -
26/04:00am 8.9 WNW 10 14 1014.4 - 2.2 - - - - - - -
26/03:30am 8.8 WNW 12 15 1014.5 - 2.2 - - - - - - -
26/03:00am 8.9 WNW 10 14 1014.9 - 2.2 - - - - - - -
26/02:30am 9.0 W 10 14 1015.0 - 2.2 - - - - - - -
26/02:00am 8.6 WNW 9 11 1015.2 - 2.2 - - - - - - -
26/01:30am 8.6 WNW 10 13 1015.4 - 2.2 - - - - - - -
26/01:00am 9.1 W 11 14 1015.5 - 2.2 - - - - - - -
26/12:30am 8.9 WNW 10 13 1015.6 - 2.2 - - - - - - -
26/12:00am 9.1 WNW 9 11 1015.5 - 2.2 - - - - - - -
 
Date/Time
CST
Temp
°C
Wind Pressure Rain since
9am
mm
Weather Cloud Vis
km
Sea
Height
m
Swell
Dir  Spd
kts
Gust
kts
hPa Trend Height
m
Period
s
Dir
25/11:30pm 9.6 WNW 10 13 1015.5 - 2.2 - - - - - - -
25/11:00pm 9.7 WNW 12 16 1015.5 - 2.2 - - - - - - -
25/10:30pm 9.3 W 12 16 1015.3 - 2.2 - - - - - - -
25/10:00pm 9.2 W 9 13 1015.2 - 2.2 - - - - - - -
25/09:30pm 9.2 W 9 13 1015.2 - 2.2 - - - - - - -
25/09:00pm 10.1 W 13 18 1015.0 - 2.2 - - - - - - -
25/08:34pm 10.5 W 19 29 1014.6 - 2.2 - - - - - - -
25/08:33pm 10.6 W 19 29 1014.6 - 2.2 - - - - - - -
25/08:30pm 10.7 W 20 29 1014.6 - 2.2 - - - - - - -
25/08:17pm 10.6 W 16 27 1014.5 - 2.2 - - - - - - -
25/08:14pm 10.6 W 16 27 1014.5 - 2.2 - - - - - - -
25/08:00pm 10.7 W 14 22 1014.3 - 2.2 - - - - - - -
25/07:30pm 10.4 W 15 20 1013.9 - 2.2 - - - - - - -
25/07:00pm 10.6 W 15 21 1013.7 - 2.2 - - - - - - -
25/06:30pm 11.3 W 16 23 1013.1 - 2.2 - - - - - - -
25/06:23pm 11.5 W 17 27 1012.9 - 2.2 - - - - - - -
25/06:20pm 11.5 W 17 27 1012.9 - 2.2 - - - - - - -
25/06:00pm 11.6 W 17 25 1012.5 - 2.2 - - - - - - -
25/05:40pm 11.4 W 17 29 1012.1 - 2.2 - - - - - - -
25/05:30pm 11.9 W 17 23 1011.8 - 2.2 - - - - - - -
25/05:00pm 11.8 W 18 25 1011.4 - 2.2 - - - - - - -
25/04:41pm 12.1 W 19 29 1011.0 - 2.2 - - - - - - -
25/04:38pm 12.1 W 19 29 1011.0 - 2.2 - - - - - - -
25/04:30pm 12.1 W 19 26 1010.9 - 2.2 - - - - - - -
25/04:00pm 11.7 WSW 19 28 1010.7 - 2.2 - - - - - - -
25/03:44pm 11.2 WSW 17 31 1010.5 - 2.2 - - - - - - -
25/03:41pm 11.2 WSW 18 31 1010.5 - 2.2 - - - - - - -
25/03:30pm 11.3 WSW 17 24 1010.6 - 2.2 - - - - - - -
25/03:15pm 11.6 WSW 20 32 1010.0 - 1.8 - - - - - - -
25/03:10pm 12.0 W 16 26 1010.2 - 1.8 - - - - - - -
25/03:00pm 12.2 W 16 24 1010.1 - 1.8 - - - - - - -
25/02:45pm 12.2 W 29 39 1009.8 - 1.6 - - - - - - -
25/02:43pm 12.2 W 29 39 1009.8 - 1.6 - - - - - - -
25/02:40pm 12.2 W 31 39 1009.5 - 1.6 - - - - - - -
25/02:37pm 12.2 WNW 21 36 1009.5 - 1.6 - - - - - - -
25/02:34pm 12.2 WNW 21 36 1009.5 - 1.6 - - - - - - -
25/02:30pm 12.2 WNW 21 30 1009.4 - 1.2 - - - - - - -
25/02:00pm 12.6 WNW 26 36 1008.6 - 0.4 - - - - - - -
25/01:31pm 13.5 NW 28 38 1008.5 - 0.0 - - - - - - -
25/01:30pm 13.7 NW 28 38 1008.5 - 0.0 - - - - - - -
25/01:02pm 13.8 NW 33 43 1008.6 - 0.0 - - - - - - -
25/01:00pm 13.9 NW 34 43 1008.5 - 0.0 - - - - - - -
25/12:58pm 13.8 NW 36 43 1008.3 - 0.0 - - - - - - -
25/12:30pm 13.7 NW 25 36 1009.5 - 0.0 - - - - - - -
25/12:02pm 13.5 NW 27 37 1010.0 - 0.0 - - - - - - -
25/12:00pm 13.3 NW 28 37 1010.0 - 0.0 - - - - - - -
25/11:33am 13.1 NW 28 39 1010.3 - 0.0 - - - - - - -
25/11:30am 13.1 NW 28 39 1010.3 - 0.0 - - - - - - -
25/11:00am 13.1 NW 25 37 1011.3 - 0.0 - - - - - - -
25/10:30am 13.2 NW 20 34 1012.0 - 0.0 - - - - - - -
25/10:07am 13.1 NW 18 28 1012.3 - 0.0 - - - - - - -
25/10:01am 13.1 NW 21 31 1012.4 - 0.0 - - - - - - -
25/10:00am 13.1 NW 20 26 1012.3 - 0.0 - - - - - - -
25/09:30am 12.9 NW 19 29 1012.7 - 0.0 - - - - - - -
25/09:24am 12.6 NW 15 25 1012.7 - 0.0 - - - - - - -
25/09:21am 12.6 NW 15 25 1012.7 - 0.0 - - - - - - -
25/09:00am 11.9 NW 15 21 1012.9 - 10.0 - - - - - - -
25/08:30am 11.3 NW 10 14 1012.9 - 10.0 - - - - - - -
25/08:00am 10.5 NW 10 12 1013.2 - 10.0 - - - - - - -
25/07:30am 9.9 NW 10 14 1013.0 - 10.0 - - - - - - -
25/07:00am 10.3 WNW 11 16 1013.1 - 10.0 - - - - - - -
25/06:30am 10.0 WNW 11 14 1013.2 - 10.0 - - - - - - -
25/06:00am 9.2 NW 7 8 1013.2 - 10.0 - - - - - - -
25/05:30am 9.2 NW 6 8 1013.1 - 10.0 - - - - - - -
25/05:00am 9.3 WNW 8 11 1013.2 - 10.0 - - - - - - -
25/04:30am 9.5 WNW 9 11 1013.3 - 10.0 - - - - - - -
25/04:00am 9.5 WNW 11 14 1013.2 - 10.0 - - - - - - -
25/03:30am 9.5 WNW 12 16 1013.3 - 10.0 - - - - - - -
25/03:00am 9.4 WNW 12 16 1013.2 - 10.0 - - - - - - -
25/02:30am 9.6 WNW 12 15 1013.3 - 10.0 - - - - - - -
25/02:00am 9.7 WNW 12 15 1013.0 - 10.0 - - - - - - -
25/01:30am 9.7 WNW 12 16 1012.9 - 10.0 - - - - - - -
25/01:00am 10.1 WNW 13 17 1012.5 - 10.0 - - - - - - -
25/12:30am 10.4 W 14 20 1012.3 - 10.0 - - - - - - -
25/12:00am 9.8 W 15 19 1012.1 - 10.0 - - - - - - -
 
Date/Time
CST
Temp
°C
Wind Pressure Rain since
9am
mm
Weather Cloud Vis
km
Sea
Height
m
Swell
Dir  Spd
kts
Gust
kts
hPa Trend Height
m
Period
s
Dir
24/11:30pm 10.0 W 20 31 1011.6 - 9.6 - - - - - - -
24/11:27pm 10.0 W 18 28 1011.7 - 9.6 - - - - - - -
24/11:00pm 10.0 W 17 24 1011.3 - 9.6 - - - - - - -
24/10:35pm 10.2 W 21 31 1010.9 - 8.6 - - - - - - -
24/10:32pm 10.2 W 21 31 1010.9 - 8.6 - - - - - - -
24/10:30pm 10.3 W 21 30 1010.9 - 8.6 - - - - - - -
24/10:08pm 10.3 W 20 33 1010.4 - 8.2 - - - - - - -
24/10:05pm 10.3 W 20 33 1010.4 - 8.2 - - - - - - -
24/10:00pm 10.3 W 19 26 1010.4 - 8.2 - - - - - - -
24/09:30pm 10.8 W 20 27 1010.1 - 8.0 - - - - - - -
24/09:01pm 11.1 W 22 32 1009.6 - 8.0 - - - - - - -
24/09:00pm 11.1 W 21 32 1009.7 - 8.0 - - - - - - -
24/08:39pm 11.2 W 20 31 1009.2 - 8.0 - - - - - - -
24/08:36pm 11.2 W 20 31 1009.2 - 8.0 - - - - - - -
24/08:30pm 11.1 W 20 29 1009.2 - 8.0 - - - - - - -
24/08:00pm 11.0 W 18 25 1008.5 - 8.0 - - - - - - -
24/07:30pm 11.4 W 26 37 1007.9 - 8.0 - - - - - - -
24/07:04pm 11.5 W 23 33 1007.1 - 8.0 - - - - - - -
24/07:01pm 11.5 W 23 33 1007.1 - 8.0 - - - - - - -
24/07:00pm 11.4 W 23 32 1007.2 - 8.0 - - - - - - -
24/06:30pm 11.5 W 23 35 1006.4 - 8.0 - - - - - - -
24/06:24pm 11.4 W 23 33 1006.0 - 8.0 - - - - - - -
24/06:21pm 11.4 W 23 33 1006.0 - 8.0 - - - - - - -
24/06:00pm 11.2 W 23 32 1005.6 - 8.0 - - - - - - -
24/05:36pm 10.9 W 25 35 1005.1 - 8.0 - - - - - - -
24/05:33pm 10.9 W 25 35 1005.1 - 8.0 - - - - - - -
24/05:30pm 10.8 W 25 34 1005.0 - 8.0 - - - - - - -
24/05:03pm 10.1 W 21 32 1005.2 - 8.0 - - - - - - -
24/05:00pm 10.1 W 21 32 1005.2 - 8.0 - - - - - - -
24/04:41pm 9.8 W 20 30 1005.3 - 7.2 - - - - - - -
24/04:38pm 9.8 W 19 30 1005.3 - 7.2 - - - - - - -
24/04:30pm 10.0 W 17 25 1005.7 - 6.4 - - - - - - -
24/04:00pm 9.9 W 20 27 1005.3 - 4.6 - - - - - - -
24/03:30pm 10.6 WNW 20 32 1005.2 - 4.0 - - - - - - -
24/03:00pm 11.0 WNW 24 38 1005.2 - 3.8 - - - - - - -
24/02:30pm 11.8 WNW 23 37 1005.0 - 3.8 - - - - - - -
24/02:03pm 11.8 W 21 32 1005.0 - 3.8 - - - - - - -
24/02:00pm 11.8 W 21 32 1005.0 - 3.8 - - - - - - -
24/01:30pm 11.2 WNW 22 39 1005.3 - 3.6 - - - - - - -
24/01:25pm 12.1 W 19 29 1005.2 - 3.6 - - - - - - -
24/01:12pm 11.9 W 19 28 1005.2 - 3.6 - - - - - - -
24/01:07pm 11.8 WNW 15 25 1005.2 - 3.6 - - - - - - -
24/01:00pm 11.1 WNW 13 21 1005.3 - 3.6 - - - - - - -
24/12:30pm 8.6 WNW 11 15 1006.2 - 3.6 - - - - - - -
24/12:09pm 9.1 W 17 38 1006.5 - 2.2 - - - - - - -
24/12:06pm 9.1 W 17 38 1006.5 - 2.2 - - - - - - -
24/12:00pm 9.9 WNW 18 26 1006.0 - 1.8 - - - - - - -
24/11:41am 10.0 NW 15 25 1006.0 - 1.6 - - - - - - -
24/11:38am 10.0 NW 15 25 1006.0 - 1.6 - - - - - - -
24/11:30am 9.6 NW 13 19 1006.3 - 1.6 - - - - - - -
24/11:00am 8.5 NNW 10 13 1006.5 - 1.6 - - - - - - -
24/10:30am 8.2 WNW 14 17 1006.9 - 1.2 - - - - - - -
24/10:00am 8.2 W 22 33 1006.5 - 0.6 - - - - - - -
24/09:56am 8.1 W 20 33 1006.4 - 0.4 - - - - - - -
24/09:52am 7.9 W 20 30 1006.4 - 0.4 - - - - - - -
24/09:42am 10.2 NNW 15 26 1006.0 - 0.0 - - - - - - -
24/09:39am 10.2 NNW 15 26 1006.0 - 0.0 - - - - - - -
24/09:30am 10.6 NNW 11 19 1006.1 - 0.0 - - - - - - -
24/09:00am 10.7 NNW 13 21 1006.1 - 0.6 - - - - - - -
24/08:30am 10.3 NNW 17 28 1006.0 - 0.6 - - - - - - -
24/08:04am 10.2 NNW 15 25 1006.0 - 0.6 - - - - - - -
24/08:01am 10.2 NNW 15 25 1006.0 - 0.6 - - - - - - -
24/08:00am 10.2 NNW 14 25 1006.1 - 0.6 - - - - - - -
24/07:30am 9.5 NNW 12 17 1006.7 - 0.4 - - - - - - -
24/07:00am 9.2 N 13 19 1006.7 - 0.4 - - - - - - -
24/06:30am 8.7 N 12 17 1007.3 - 0.4 - - - - - - -
24/06:00am 7.7 N 8 13 1007.9 - 0.4 - - - - - - -
24/05:30am 7.2 N 9 12 1008.0 - 0.2 - - - - - - -
24/05:00am 7.8 N 10 15 1008.1 - 0.2 - - - - - - -
24/04:30am 6.5 N 9 11 1008.7 - 0.2 - - - - - - -
24/04:00am 7.1 NNE 11 14 1009.3 - 0.2 - - - - - - -
24/03:30am 7.3 N 8 11 1010.0 - 0.2 - - - - - - -
24/03:00am 7.1 N 9 12 1010.5 - 0.2 - - - - - - -
24/02:30am 7.4 N 8 10 1011.0 - 0.2 - - - - - - -
24/02:00am 7.1 NNE 7 9 1011.5 - 0.2 - - - - - - -
24/01:30am 7.0 NNE 6 7 1012.1 - 0.2 - - - - - - -
24/01:00am 7.2 NNE 6 8 1012.6 - 0.2 - - - - - - -
24/12:30am 7.5 N 6 9 1013.0 - 0.2 - - - - - - -
24/12:00am 6.3 ENE 7 8 1013.5 - 0.2 - - - - - - -
 
Date/Time
CST
Temp
°C
Wind Pressure Rain since
9am
mm
Weather Cloud Vis
km
Sea
Height
m
Swell
Dir  Spd
kts
Gust
kts
hPa Trend Height
m
Period
s
Dir
23/11:30pm 7.8 N 4 7 1013.8 - 0.2 - - - - - - -
23/11:00pm 7.9 N 4 5 1014.0 - 0.2 - - - - - - -
23/10:30pm 8.3 WNW 4 5 1014.3 - 0.2 - - - - - - -
23/10:00pm 8.4 N 6 8 1014.1 - 0.2 - - - - - - -
23/09:30pm 7.9 NNW 7 9 1014.4 - 0.2 - - - - - - -
23/09:00pm 7.9 NNW 7 8 1014.6 - 0.2 - - - - - - -
23/08:30pm 7.7 N 5 6 1014.8 - 0.2 - - - - - - -
23/08:00pm 8.0 NNW 7 10 1014.8 - 0.2 - - - - - - -
23/07:30pm 8.5 NNW 7 9 1014.9 - 0.2 - - - - - - -
23/07:00pm 8.2 N 4 6 1014.9 - 0.0 - - - - - - -
23/06:30pm 8.5 NNW 4 5 1014.7 - 0.0 - - - - - - -
23/06:00pm 9.0 NW 5 5 1014.5 - 0.0 - - - - - - -

Other Formats:

Comma delimited format used in spreadsheet applications
http://www.bom.gov.au/fwo/IDS60701/IDS60701.94677.axf

JavaScript Object Notation format (JSON) in row-major order
http://www.bom.gov.au/fwo/IDS60701/IDS60701.94677.json